sensor_id;sensor_type;location;lat;lon;timestamp;temperature;humidity
18101;DHT22;9177;49.156;8.142;2023-03-21T00:00:38;19.80;91.50
18101;DHT22;9177;49.156;8.142;2023-03-21T00:03:05;19.70;91.50
18101;DHT22;9177;49.156;8.142;2023-03-21T00:05:32;19.80;91.50
18101;DHT22;9177;49.156;8.142;2023-03-21T00:08:00;19.70;91.50
18101;DHT22;9177;49.156;8.142;2023-03-21T00:10:27;19.70;91.50
18101;DHT22;9177;49.156;8.142;2023-03-21T00:12:55;19.70;91.50
18101;DHT22;9177;49.156;8.142;2023-03-21T00:15:24;19.70;91.50
18101;DHT22;9177;49.156;8.142;2023-03-21T00:17:53;19.70;91.50
18101;DHT22;9177;49.156;8.142;2023-03-21T00:20:22;19.70;91.50
18101;DHT22;9177;49.156;8.142;2023-03-21T00:22:53;19.70;91.50
18101;DHT22;9177;49.156;8.142;2023-03-21T00:25:26;19.70;91.50
18101;DHT22;9177;49.156;8.142;2023-03-21T00:28:00;19.70;91.50
18101;DHT22;9177;49.156;8.142;2023-03-21T00:30:27;19.70;91.50
18101;DHT22;9177;49.156;8.142;2023-03-21T00:32:54;19.70;91.50
18101;DHT22;9177;49.156;8.142;2023-03-21T00:35:21;19.70;91.50
18101;DHT22;9177;49.156;8.142;2023-03-21T00:37:48;19.70;91.50
18101;DHT22;9177;49.156;8.142;2023-03-21T00:40:15;19.70;91.50
18101;DHT22;9177;49.156;8.142;2023-03-21T00:43:00;19.70;91.50
18101;DHT22;9177;49.156;8.142;2023-03-21T00:45:28;19.70;91.50
18101;DHT22;9177;49.156;8.142;2023-03-21T00:47:56;19.70;91.50
18101;DHT22;9177;49.156;8.142;2023-03-21T00:50:23;19.70;91.60
18101;DHT22;9177;49.156;8.142;2023-03-21T00:52:50;19.70;91.60
18101;DHT22;9177;49.156;8.142;2023-03-21T00:55:18;19.70;91.50
18101;DHT22;9177;49.156;8.142;2023-03-21T00:57:46;19.70;91.50
18101;DHT22;9177;49.156;8.142;2023-03-21T01:00:16;19.70;91.60
18101;DHT22;9177;49.156;8.142;2023-03-21T01:02:43;19.70;91.50
18101;DHT22;9177;49.156;8.142;2023-03-21T01:05:21;19.60;91.50
18101;DHT22;9177;49.156;8.142;2023-03-21T01:08:08;19.70;91.50
18101;DHT22;9177;49.156;8.142;2023-03-21T01:11:04;19.60;91.50
18101;DHT22;9177;49.156;8.142;2023-03-21T01:13:32;19.60;91.50
18101;DHT22;9177;49.156;8.142;2023-03-21T01:16:00;19.60;91.50
18101;DHT22;9177;49.156;8.142;2023-03-21T01:18:30;19.60;91.50
18101;DHT22;9177;49.156;8.142;2023-03-21T01:20:59;19.60;91.50
18101;DHT22;9177;49.156;8.142;2023-03-21T01:23:27;19.60;91.50
18101;DHT22;9177;49.156;8.142;2023-03-21T01:25:55;19.60;91.50
18101;DHT22;9177;49.156;8.142;2023-03-21T01:28:25;19.60;91.60
18101;DHT22;9177;49.156;8.142;2023-03-21T01:30:52;19.60;91.60
18101;DHT22;9177;49.156;8.142;2023-03-21T01:33:21;19.60;91.60
18101;DHT22;9177;49.156;8.142;2023-03-21T01:35:48;19.60;91.50
18101;DHT22;9177;49.156;8.142;2023-03-21T01:38:15;19.60;91.60
18101;DHT22;9177;49.156;8.142;2023-03-21T01:40:44;19.60;91.50
18101;DHT22;9177;49.156;8.142;2023-03-21T01:43:21;19.60;91.60
18101;DHT22;9177;49.156;8.142;2023-03-21T01:46:19;19.60;91.60
18101;DHT22;9177;49.156;8.142;2023-03-21T01:48:54;19.60;91.50
18101;DHT22;9177;49.156;8.142;2023-03-21T01:51:22;19.60;91.60
18101;DHT22;9177;49.156;8.142;2023-03-21T01:53:50;19.50;91.50
18101;DHT22;9177;49.156;8.142;2023-03-21T01:56:23;19.60;91.50
18101;DHT22;9177;49.156;8.142;2023-03-21T01:58:51;19.60;91.60
18101;DHT22;9177;49.156;8.142;2023-03-21T02:01:20;19.50;91.50
18101;DHT22;9177;49.156;8.142;2023-03-21T02:03:50;19.50;91.50
18101;DHT22;9177;49.156;8.142;2023-03-21T02:06:23;19.50;91.50
18101;DHT22;9177;49.156;8.142;2023-03-21T02:08:56;19.50;91.50
18101;DHT22;9177;49.156;8.142;2023-03-21T02:11:23;19.50;91.50
18101;DHT22;9177;49.156;8.142;2023-03-21T02:13:51;19.50;91.60
18101;DHT22;9177;49.156;8.142;2023-03-21T02:16:25;19.50;91.60
18101;DHT22;9177;49.156;8.142;2023-03-21T02:18:58;19.50;91.60
18101;DHT22;9177;49.156;8.142;2023-03-21T02:21:54;19.50;91.60
18101;DHT22;9177;49.156;8.142;2023-03-21T02:24:47;19.50;91.50
18101;DHT22;9177;49.156;8.142;2023-03-21T02:27:21;19.50;91.60
18101;DHT22;9177;49.156;8.142;2023-03-21T02:33:18;19.50;91.50
18101;DHT22;9177;49.156;8.142;2023-03-21T02:36:08;19.50;91.50
18101;DHT22;9177;49.156;8.142;2023-03-21T02:38:46;19.50;91.50
18101;DHT22;9177;49.156;8.142;2023-03-21T02:41:17;19.50;91.90
18101;DHT22;9177;49.156;8.142;2023-03-21T02:43:51;19.50;91.50
18101;DHT22;9177;49.156;8.142;2023-03-21T02:46:24;19.50;91.50
18101;DHT22;9177;49.156;8.142;2023-03-21T02:48:55;19.50;91.50
18101;DHT22;9177;49.156;8.142;2023-03-21T02:51:25;19.50;91.50
18101;DHT22;9177;49.156;8.142;2023-03-21T02:53:59;19.50;91.40
18101;DHT22;9177;49.156;8.142;2023-03-21T02:56:27;19.50;91.40
18101;DHT22;9177;49.156;8.142;2023-03-21T02:58:56;19.50;91.40
18101;DHT22;9177;49.156;8.142;2023-03-21T03:01:23;19.40;91.50
18101;DHT22;9177;49.156;8.142;2023-03-21T03:03:50;19.50;91.50
18101;DHT22;9177;49.156;8.142;2023-03-21T03:06:20;19.40;91.50
18101;DHT22;9177;49.156;8.142;2023-03-21T03:09:06;19.40;91.40
18101;DHT22;9177;49.156;8.142;2023-03-21T03:11:38;19.40;91.40
18101;DHT22;9177;49.156;8.142;2023-03-21T03:14:25;19.40;91.40
18101;DHT22;9177;49.156;8.142;2023-03-21T03:17:02;19.40;91.40
18101;DHT22;9177;49.156;8.142;2023-03-21T03:19:37;19.40;91.40
18101;DHT22;9177;49.156;8.142;2023-03-21T03:22:09;19.40;91.40
18101;DHT22;9177;49.156;8.142;2023-03-21T03:24:45;19.40;91.40
18101;DHT22;9177;49.156;8.142;2023-03-21T03:27:23;19.40;91.40
18101;DHT22;9177;49.156;8.142;2023-03-21T03:29:52;19.40;91.50
18101;DHT22;9177;49.156;8.142;2023-03-21T03:32:23;19.40;91.50
18101;DHT22;9177;49.156;8.142;2023-03-21T03:34:53;19.40;91.40
18101;DHT22;9177;49.156;8.142;2023-03-21T03:37:27;19.40;91.30
18101;DHT22;9177;49.156;8.142;2023-03-21T03:40:00;19.40;91.40
18101;DHT22;9177;49.156;8.142;2023-03-21T03:42:33;19.40;91.70
18101;DHT22;9177;49.156;8.142;2023-03-21T03:45:02;19.40;91.40
18101;DHT22;9177;49.156;8.142;2023-03-21T03:47:35;19.40;91.30
18101;DHT22;9177;49.156;8.142;2023-03-21T03:50:07;19.50;91.40
18101;DHT22;9177;49.156;8.142;2023-03-21T03:52:41;19.80;91.40
18101;DHT22;9177;49.156;8.142;2023-03-21T03:55:11;20.10;91.10
18101;DHT22;9177;49.156;8.142;2023-03-21T03:57:40;20.20;90.90
18101;DHT22;9177;49.156;8.142;2023-03-21T04:00:09;20.50;90.70
18101;DHT22;9177;49.156;8.142;2023-03-21T04:02:37;20.80;90.50
18101;DHT22;9177;49.156;8.142;2023-03-21T04:05:05;21.00;90.20
18101;DHT22;9177;49.156;8.142;2023-03-21T04:07:32;21.30;89.70
18101;DHT22;9177;49.156;8.142;2023-03-21T04:09:58;21.50;89.20
18101;DHT22;9177;49.156;8.142;2023-03-21T04:12:27;21.60;88.60
18101;DHT22;9177;49.156;8.142;2023-03-21T04:14:54;21.70;88.20
18101;DHT22;9177;49.156;8.142;2023-03-21T04:17:27;21.80;87.90
18101;DHT22;9177;49.156;8.142;2023-03-21T04:19:54;21.90;87.60
18101;DHT22;9177;49.156;8.142;2023-03-21T04:22:21;21.90;87.50
18101;DHT22;9177;49.156;8.142;2023-03-21T04:24:49;21.80;88.20
18101;DHT22;9177;49.156;8.142;2023-03-21T04:27:15;21.80;87.50
18101;DHT22;9177;49.156;8.142;2023-03-21T04:29:44;21.70;87.50
18101;DHT22;9177;49.156;8.142;2023-03-21T04:32:11;21.60;87.70
18101;DHT22;9177;49.156;8.142;2023-03-21T04:34:45;21.50;87.80
18101;DHT22;9177;49.156;8.142;2023-03-21T04:37:14;21.40;88.00
18101;DHT22;9177;49.156;8.142;2023-03-21T04:39:41;21.30;88.30
18101;DHT22;9177;49.156;8.142;2023-03-21T04:42:08;21.30;88.30
18101;DHT22;9177;49.156;8.142;2023-03-21T04:44:35;21.20;88.50
18101;DHT22;9177;49.156;8.142;2023-03-21T04:47:03;21.10;88.70
18101;DHT22;9177;49.156;8.142;2023-03-21T04:49:30;21.00;88.80
18101;DHT22;9177;49.156;8.142;2023-03-21T04:51:57;20.90;89.00
18101;DHT22;9177;49.156;8.142;2023-03-21T04:54:24;20.80;89.20
18101;DHT22;9177;49.156;8.142;2023-03-21T04:56:54;20.80;89.30
18101;DHT22;9177;49.156;8.142;2023-03-21T04:59:21;20.70;89.40
18101;DHT22;9177;49.156;8.142;2023-03-21T05:01:48;20.70;89.50
18101;DHT22;9177;49.156;8.142;2023-03-21T05:07:39;20.60;89.80
18101;DHT22;9177;49.156;8.142;2023-03-21T05:10:08;20.50;90.00
18101;DHT22;9177;49.156;8.142;2023-03-21T05:12:36;20.50;90.10
18101;DHT22;9177;49.156;8.142;2023-03-21T05:15:09;20.40;90.10
18101;DHT22;9177;49.156;8.142;2023-03-21T05:17:36;20.40;90.20
18101;DHT22;9177;49.156;8.142;2023-03-21T05:20:04;20.40;90.20
18101;DHT22;9177;49.156;8.142;2023-03-21T05:22:34;20.30;90.20
18101;DHT22;9177;49.156;8.142;2023-03-21T05:25:07;20.30;90.30
18101;DHT22;9177;49.156;8.142;2023-03-21T05:27:35;20.20;90.30
18101;DHT22;9177;49.156;8.142;2023-03-21T05:30:05;20.20;90.30
18101;DHT22;9177;49.156;8.142;2023-03-21T05:32:36;20.20;90.40
18101;DHT22;9177;49.156;8.142;2023-03-21T05:35:04;20.20;90.40
18101;DHT22;9177;49.156;8.142;2023-03-21T05:37:31;20.20;90.40
18101;DHT22;9177;49.156;8.142;2023-03-21T05:39:57;20.10;90.50
18101;DHT22;9177;49.156;8.142;2023-03-21T05:42:26;20.10;90.40
18101;DHT22;9177;49.156;8.142;2023-03-21T05:44:53;20.10;90.40
18101;DHT22;9177;49.156;8.142;2023-03-21T05:47:19;20.10;90.40
18101;DHT22;9177;49.156;8.142;2023-03-21T05:49:46;20.10;90.40
18101;DHT22;9177;49.156;8.142;2023-03-21T05:52:14;20.10;90.50
18101;DHT22;9177;49.156;8.142;2023-03-21T05:54:41;20.10;90.90
18101;DHT22;9177;49.156;8.142;2023-03-21T05:57:08;20.10;90.50
18101;DHT22;9177;49.156;8.142;2023-03-21T05:59:36;20.10;90.50
18101;DHT22;9177;49.156;8.142;2023-03-21T06:02:04;20.10;90.50
18101;DHT22;9177;49.156;8.142;2023-03-21T06:04:31;20.10;90.50
18101;DHT22;9177;49.156;8.142;2023-03-21T06:06:57;20.10;90.50
18101;DHT22;9177;49.156;8.142;2023-03-21T06:09:24;20.10;90.50
18101;DHT22;9177;49.156;8.142;2023-03-21T06:11:54;20.10;90.50
18101;DHT22;9177;49.156;8.142;2023-03-21T06:14:24;20.10;90.50
18101;DHT22;9177;49.156;8.142;2023-03-21T06:16:52;20.10;90.60
18101;DHT22;9177;49.156;8.142;2023-03-21T06:19:19;20.10;90.50
18101;DHT22;9177;49.156;8.142;2023-03-21T06:21:46;20.10;90.50
18101;DHT22;9177;49.156;8.142;2023-03-21T06:24:14;20.10;90.50
18101;DHT22;9177;49.156;8.142;2023-03-21T06:26:42;20.10;90.60
18101;DHT22;9177;49.156;8.142;2023-03-21T06:29:09;20.10;90.50
18101;DHT22;9177;49.156;8.142;2023-03-21T06:31:36;20.10;90.60
18101;DHT22;9177;49.156;8.142;2023-03-21T06:34:04;20.10;90.60
18101;DHT22;9177;49.156;8.142;2023-03-21T06:36:31;20.10;90.50
18101;DHT22;9177;49.156;8.142;2023-03-21T06:38:58;20.10;90.50
18101;DHT22;9177;49.156;8.142;2023-03-21T06:41:25;20.10;90.40
18101;DHT22;9177;49.156;8.142;2023-03-21T06:43:52;20.10;90.40
18101;DHT22;9177;49.156;8.142;2023-03-21T06:46:19;20.10;90.40
18101;DHT22;9177;49.156;8.142;2023-03-21T06:48:49;20.10;90.30
18101;DHT22;9177;49.156;8.142;2023-03-21T06:51:24;20.10;90.30
18101;DHT22;9177;49.156;8.142;2023-03-21T06:53:54;20.10;90.30
18101;DHT22;9177;49.156;8.142;2023-03-21T06:56:21;20.10;90.30
18101;DHT22;9177;49.156;8.142;2023-03-21T06:58:48;20.10;90.40
18101;DHT22;9177;49.156;8.142;2023-03-21T07:01:15;20.00;90.50
18101;DHT22;9177;49.156;8.142;2023-03-21T07:03:42;20.00;90.80
18101;DHT22;9177;49.156;8.142;2023-03-21T07:06:10;20.00;90.70
18101;DHT22;9177;49.156;8.142;2023-03-21T07:08:40;19.90;90.80
18101;DHT22;9177;49.156;8.142;2023-03-21T07:11:07;19.80;90.70
18101;DHT22;9177;49.156;8.142;2023-03-21T07:13:34;19.80;90.80
18101;DHT22;9177;49.156;8.142;2023-03-21T07:16:01;19.70;90.80
18101;DHT22;9177;49.156;8.142;2023-03-21T07:18:28;19.80;90.80
18101;DHT22;9177;49.156;8.142;2023-03-21T07:20:55;19.80;90.80
18101;DHT22;9177;49.156;8.142;2023-03-21T07:23:23;19.70;90.70
18101;DHT22;9177;49.156;8.142;2023-03-21T07:25:53;19.70;90.60
18101;DHT22;9177;49.156;8.142;2023-03-21T07:28:21;19.70;90.50
18101;DHT22;9177;49.156;8.142;2023-03-21T07:30:52;19.80;90.40
18101;DHT22;9177;49.156;8.142;2023-03-21T07:33:20;19.80;90.20
18101;DHT22;9177;49.156;8.142;2023-03-21T07:35:48;19.90;90.10
18101;DHT22;9177;49.156;8.142;2023-03-21T07:38:14;20.00;89.80
18101;DHT22;9177;49.156;8.142;2023-03-21T07:40:42;20.10;89.40
18101;DHT22;9177;49.156;8.142;2023-03-21T07:43:10;20.20;89.30
18101;DHT22;9177;49.156;8.142;2023-03-21T07:45:39;20.20;89.00
18101;DHT22;9177;49.156;8.142;2023-03-21T07:48:07;20.30;88.90
18101;DHT22;9177;49.156;8.142;2023-03-21T07:50:34;20.40;88.80
18101;DHT22;9177;49.156;8.142;2023-03-21T07:53:01;20.50;88.80
18101;DHT22;9177;49.156;8.142;2023-03-21T07:55:34;20.50;88.80
18101;DHT22;9177;49.156;8.142;2023-03-21T07:58:03;20.40;88.80
18101;DHT22;9177;49.156;8.142;2023-03-21T08:00:32;20.40;88.90
18101;DHT22;9177;49.156;8.142;2023-03-21T08:02:59;20.40;89.00
18101;DHT22;9177;49.156;8.142;2023-03-21T08:05:27;20.50;88.80
18101;DHT22;9177;49.156;8.142;2023-03-21T08:07:55;20.60;88.80
18101;DHT22;9177;49.156;8.142;2023-03-21T08:10:22;20.70;88.80
18101;DHT22;9177;49.156;8.142;2023-03-21T08:12:49;20.70;88.70
18101;DHT22;9177;49.156;8.142;2023-03-21T08:15:16;20.80;88.70
18101;DHT22;9177;49.156;8.142;2023-03-21T08:17:45;20.80;88.70
18101;DHT22;9177;49.156;8.142;2023-03-21T08:20:14;20.90;88.80
18101;DHT22;9177;49.156;8.142;2023-03-21T08:22:42;20.90;88.80
18101;DHT22;9177;49.156;8.142;2023-03-21T08:25:10;21.00;88.90
18101;DHT22;9177;49.156;8.142;2023-03-21T08:27:38;20.90;88.90
18101;DHT22;9177;49.156;8.142;2023-03-21T08:30:07;20.80;89.30
18101;DHT22;9177;49.156;8.142;2023-03-21T08:32:38;20.70;89.40
18101;DHT22;9177;49.156;8.142;2023-03-21T08:35:10;20.60;90.00
18101;DHT22;9177;49.156;8.142;2023-03-21T08:37:38;20.60;90.30
18101;DHT22;9177;49.156;8.142;2023-03-21T08:40:07;20.50;90.50
18101;DHT22;9177;49.156;8.142;2023-03-21T08:42:35;20.50;90.90
18101;DHT22;9177;49.156;8.142;2023-03-21T08:45:03;20.50;91.00
18101;DHT22;9177;49.156;8.142;2023-03-21T08:47:30;20.60;90.90
18101;DHT22;9177;49.156;8.142;2023-03-21T08:49:57;20.60;90.80
18101;DHT22;9177;49.156;8.142;2023-03-21T08:52:26;20.60;90.70
18101;DHT22;9177;49.156;8.142;2023-03-21T08:54:53;20.50;90.60
18101;DHT22;9177;49.156;8.142;2023-03-21T08:57:20;20.40;90.80
18101;DHT22;9177;49.156;8.142;2023-03-21T08:59:52;20.30;90.80
18101;DHT22;9177;49.156;8.142;2023-03-21T09:02:21;20.20;90.90
18101;DHT22;9177;49.156;8.142;2023-03-21T09:04:47;20.20;91.00
18101;DHT22;9177;49.156;8.142;2023-03-21T09:07:17;20.10;90.90
18101;DHT22;9177;49.156;8.142;2023-03-21T09:09:45;20.10;91.00
18101;DHT22;9177;49.156;8.142;2023-03-21T09:12:12;20.10;91.10
18101;DHT22;9177;49.156;8.142;2023-03-21T09:14:39;20.10;91.50
18101;DHT22;9177;49.156;8.142;2023-03-21T09:17:06;20.10;91.60
18101;DHT22;9177;49.156;8.142;2023-03-21T09:19:33;20.00;91.30
18101;DHT22;9177;49.156;8.142;2023-03-21T09:22:00;20.00;91.20
18101;DHT22;9177;49.156;8.142;2023-03-21T09:24:28;20.20;91.10
18101;DHT22;9177;49.156;8.142;2023-03-21T09:26:56;20.40;90.90
18101;DHT22;9177;49.156;8.142;2023-03-21T09:29:24;20.50;90.80
18101;DHT22;9177;49.156;8.142;2023-03-21T09:31:51;20.60;90.60
18101;DHT22;9177;49.156;8.142;2023-03-21T09:34:19;20.70;90.60
18101;DHT22;9177;49.156;8.142;2023-03-21T09:36:45;20.70;90.50
18101;DHT22;9177;49.156;8.142;2023-03-21T09:39:19;20.70;90.60
18101;DHT22;9177;49.156;8.142;2023-03-21T09:41:59;20.80;90.60
18101;DHT22;9177;49.156;8.142;2023-03-21T09:44:38;20.80;90.50
18101;DHT22;9177;49.156;8.142;2023-03-21T09:47:15;20.80;90.50
18101;DHT22;9177;49.156;8.142;2023-03-21T09:49:48;20.80;90.50
18101;DHT22;9177;49.156;8.142;2023-03-21T09:55:16;20.70;90.50
18101;DHT22;9177;49.156;8.142;2023-03-21T09:57:47;20.70;90.60
18101;DHT22;9177;49.156;8.142;2023-03-21T10:00:20;20.70;90.60
18101;DHT22;9177;49.156;8.142;2023-03-21T10:03:02;20.70;90.70
18101;DHT22;9177;49.156;8.142;2023-03-21T10:05:32;20.70;90.70
18101;DHT22;9177;49.156;8.142;2023-03-21T10:08:02;20.60;90.70
18101;DHT22;9177;49.156;8.142;2023-03-21T10:10:34;20.60;90.70
18101;DHT22;9177;49.156;8.142;2023-03-21T10:13:04;20.60;90.80
18101;DHT22;9177;49.156;8.142;2023-03-21T10:15:32;20.60;90.80
18101;DHT22;9177;49.156;8.142;2023-03-21T10:18:05;20.60;90.90
18101;DHT22;9177;49.156;8.142;2023-03-21T10:20:35;20.60;90.90
18101;DHT22;9177;49.156;8.142;2023-03-21T10:23:04;20.60;90.90
18101;DHT22;9177;49.156;8.142;2023-03-21T10:25:33;20.60;90.90
18101;DHT22;9177;49.156;8.142;2023-03-21T10:28:04;20.60;90.90
18101;DHT22;9177;49.156;8.142;2023-03-21T10:30:36;20.60;90.90
18101;DHT22;9177;49.156;8.142;2023-03-21T10:33:07;20.60;90.90
18101;DHT22;9177;49.156;8.142;2023-03-21T10:35:40;20.60;90.90
18101;DHT22;9177;49.156;8.142;2023-03-21T10:38:24;20.60;90.90
18101;DHT22;9177;49.156;8.142;2023-03-21T10:40:52;20.60;90.90
18101;DHT22;9177;49.156;8.142;2023-03-21T10:43:36;20.60;91.00
18101;DHT22;9177;49.156;8.142;2023-03-21T10:46:08;20.60;91.00
18101;DHT22;9177;49.156;8.142;2023-03-21T10:48:38;20.60;91.00
18101;DHT22;9177;49.156;8.142;2023-03-21T10:51:07;20.60;91.10
18101;DHT22;9177;49.156;8.142;2023-03-21T10:53:38;20.60;91.40
18101;DHT22;9177;49.156;8.142;2023-03-21T10:56:08;20.60;91.00
18101;DHT22;9177;49.156;8.142;2023-03-21T10:58:58;20.50;91.10
18101;DHT22;9177;49.156;8.142;2023-03-21T11:01:34;20.50;91.10
18101;DHT22;9177;49.156;8.142;2023-03-21T11:04:07;20.60;91.20
18101;DHT22;9177;49.156;8.142;2023-03-21T11:06:38;20.60;91.20
18101;DHT22;9177;49.156;8.142;2023-03-21T11:09:08;20.60;91.20
18101;DHT22;9177;49.156;8.142;2023-03-21T11:11:40;20.60;91.20
18101;DHT22;9177;49.156;8.142;2023-03-21T11:14:24;20.70;91.30
18101;DHT22;9177;49.156;8.142;2023-03-21T11:16:51;20.70;91.20
18101;DHT22;9177;49.156;8.142;2023-03-21T11:19:25;20.70;91.20
18101;DHT22;9177;49.156;8.142;2023-03-21T11:21:52;20.70;91.30
18101;DHT22;9177;49.156;8.142;2023-03-21T11:24:22;20.70;91.30
18101;DHT22;9177;49.156;8.142;2023-03-21T11:26:49;20.70;91.30
18101;DHT22;9177;49.156;8.142;2023-03-21T11:29:28;20.80;91.30
18101;DHT22;9177;49.156;8.142;2023-03-21T11:31:57;20.80;91.30
18101;DHT22;9177;49.156;8.142;2023-03-21T11:34:30;20.90;91.30
18101;DHT22;9177;49.156;8.142;2023-03-21T11:36:59;20.90;91.20
18101;DHT22;9177;49.156;8.142;2023-03-21T11:39:30;20.90;91.20
18101;DHT22;9177;49.156;8.142;2023-03-21T11:41:58;20.90;91.20
18101;DHT22;9177;49.156;8.142;2023-03-21T11:44:29;21.00;91.20
18101;DHT22;9177;49.156;8.142;2023-03-21T11:46:57;21.00;91.20
18101;DHT22;9177;49.156;8.142;2023-03-21T11:49:25;21.00;91.20
18101;DHT22;9177;49.156;8.142;2023-03-21T11:52:02;21.10;91.20
18101;DHT22;9177;49.156;8.142;2023-03-21T11:54:37;21.10;91.10
18101;DHT22;9177;49.156;8.142;2023-03-21T11:57:12;21.10;91.10
18101;DHT22;9177;49.156;8.142;2023-03-21T11:59:49;21.10;91.20
18101;DHT22;9177;49.156;8.142;2023-03-21T12:02:42;21.10;91.20
18101;DHT22;9177;49.156;8.142;2023-03-21T12:05:22;21.10;91.20
18101;DHT22;9177;49.156;8.142;2023-03-21T12:07:58;21.10;91.20
18101;DHT22;9177;49.156;8.142;2023-03-21T12:10:40;21.10;91.20
18101;DHT22;9177;49.156;8.142;2023-03-21T12:13:18;21.10;91.20
18101;DHT22;9177;49.156;8.142;2023-03-21T12:15:56;21.10;91.20
18101;DHT22;9177;49.156;8.142;2023-03-21T12:18:42;21.10;91.30
18101;DHT22;9177;49.156;8.142;2023-03-21T12:21:17;21.00;91.20
18101;DHT22;9177;49.156;8.142;2023-03-21T12:24:00;21.00;91.30
18101;DHT22;9177;49.156;8.142;2023-03-21T12:26:30;21.00;91.30
18101;DHT22;9177;49.156;8.142;2023-03-21T12:29:22;21.00;91.40
18101;DHT22;9177;49.156;8.142;2023-03-21T12:32:03;21.00;91.40
18101;DHT22;9177;49.156;8.142;2023-03-21T12:37:49;20.90;91.40
18101;DHT22;9177;49.156;8.142;2023-03-21T12:40:32;20.90;91.40
18101;DHT22;9177;49.156;8.142;2023-03-21T12:43:28;20.90;91.40
18101;DHT22;9177;49.156;8.142;2023-03-21T12:46:00;20.90;91.50
18101;DHT22;9177;49.156;8.142;2023-03-21T12:48:35;20.80;91.60
18101;DHT22;9177;49.156;8.142;2023-03-21T12:51:09;20.80;91.60
18101;DHT22;9177;49.156;8.142;2023-03-21T12:53:47;20.80;91.60
18101;DHT22;9177;49.156;8.142;2023-03-21T12:56:21;20.70;91.40
18101;DHT22;9177;49.156;8.142;2023-03-21T12:58:53;20.70;91.30
18101;DHT22;9177;49.156;8.142;2023-03-21T13:01:22;20.70;91.20
18101;DHT22;9177;49.156;8.142;2023-03-21T13:04:05;20.70;91.10
18101;DHT22;9177;49.156;8.142;2023-03-21T13:06:34;20.70;91.10
18101;DHT22;9177;49.156;8.142;2023-03-21T13:09:09;20.70;91.00
18101;DHT22;9177;49.156;8.142;2023-03-21T13:11:39;20.70;91.00
18101;DHT22;9177;49.156;8.142;2023-03-21T13:14:20;20.70;91.00
18101;DHT22;9177;49.156;8.142;2023-03-21T13:16:52;20.70;91.10
18101;DHT22;9177;49.156;8.142;2023-03-21T13:19:27;20.70;91.10
18101;DHT22;9177;49.156;8.142;2023-03-21T13:22:03;20.70;91.00
18101;DHT22;9177;49.156;8.142;2023-03-21T13:24:38;20.70;91.10
18101;DHT22;9177;49.156;8.142;2023-03-21T13:27:18;20.70;91.10
18101;DHT22;9177;49.156;8.142;2023-03-21T13:29:50;20.70;91.30
18101;DHT22;9177;49.156;8.142;2023-03-21T13:32:22;20.70;91.10
18101;DHT22;9177;49.156;8.142;2023-03-21T13:34:57;20.70;91.10
18101;DHT22;9177;49.156;8.142;2023-03-21T13:37:28;20.70;91.00
18101;DHT22;9177;49.156;8.142;2023-03-21T13:40:02;20.70;91.00
18101;DHT22;9177;49.156;8.142;2023-03-21T13:42:41;20.70;91.00
18101;DHT22;9177;49.156;8.142;2023-03-21T13:45:10;20.70;91.00
18101;DHT22;9177;49.156;8.142;2023-03-21T13:47:40;20.70;91.00
18101;DHT22;9177;49.156;8.142;2023-03-21T13:50:24;20.70;91.00
18101;DHT22;9177;49.156;8.142;2023-03-21T13:53:19;20.60;91.10
18101;DHT22;9177;49.156;8.142;2023-03-21T13:55:58;20.60;91.00
18101;DHT22;9177;49.156;8.142;2023-03-21T13:58:36;20.60;91.00
18101;DHT22;9177;49.156;8.142;2023-03-21T14:01:23;20.60;91.10
18101;DHT22;9177;49.156;8.142;2023-03-21T14:03:57;20.60;91.10
18101;DHT22;9177;49.156;8.142;2023-03-21T14:06:32;20.60;91.30
18101;DHT22;9177;49.156;8.142;2023-03-21T14:09:00;20.50;91.30
18101;DHT22;9177;49.156;8.142;2023-03-21T14:11:28;20.50;91.30
18101;DHT22;9177;49.156;8.142;2023-03-21T14:13:58;20.50;91.20
18101;DHT22;9177;49.156;8.142;2023-03-21T14:16:25;20.50;91.30
18101;DHT22;9177;49.156;8.142;2023-03-21T14:18:56;20.50;91.70
18101;DHT22;9177;49.156;8.142;2023-03-21T14:21:28;20.50;91.30
18101;DHT22;9177;49.156;8.142;2023-03-21T14:23:59;20.50;91.30
18101;DHT22;9177;49.156;8.142;2023-03-21T14:26:29;20.50;91.40
18101;DHT22;9177;49.156;8.142;2023-03-21T14:28:57;20.50;91.40
18101;DHT22;9177;49.156;8.142;2023-03-21T14:31:25;20.50;91.40
18101;DHT22;9177;49.156;8.142;2023-03-21T14:33:55;20.40;91.40
18101;DHT22;9177;49.156;8.142;2023-03-21T14:36:24;20.40;91.50
18101;DHT22;9177;49.156;8.142;2023-03-21T14:39:05;20.40;91.50
18101;DHT22;9177;49.156;8.142;2023-03-21T14:41:34;20.40;91.50
18101;DHT22;9177;49.156;8.142;2023-03-21T14:44:19;20.40;91.50
18101;DHT22;9177;49.156;8.142;2023-03-21T14:46:59;20.40;91.50
18101;DHT22;9177;49.156;8.142;2023-03-21T14:49:28;20.40;91.60
18101;DHT22;9177;49.156;8.142;2023-03-21T14:51:57;20.40;91.60
18101;DHT22;9177;49.156;8.142;2023-03-21T14:54:26;20.40;91.50
18101;DHT22;9177;49.156;8.142;2023-03-21T14:56:57;20.50;91.60
18101;DHT22;9177;49.156;8.142;2023-03-21T14:59:28;20.50;91.60
18101;DHT22;9177;49.156;8.142;2023-03-21T15:01:58;20.50;91.50
18101;DHT22;9177;49.156;8.142;2023-03-21T15:04:27;20.50;91.50
18101;DHT22;9177;49.156;8.142;2023-03-21T15:06:56;20.50;91.50
18101;DHT22;9177;49.156;8.142;2023-03-21T15:09:28;20.50;91.60
18101;DHT22;9177;49.156;8.142;2023-03-21T15:11:56;20.50;91.60
18101;DHT22;9177;49.156;8.142;2023-03-21T15:14:27;20.60;91.60
18101;DHT22;9177;49.156;8.142;2023-03-21T15:16:57;20.60;91.50
18101;DHT22;9177;49.156;8.142;2023-03-21T15:19:31;20.60;91.50
18101;DHT22;9177;49.156;8.142;2023-03-21T15:22:05;20.60;91.50
18101;DHT22;9177;49.156;8.142;2023-03-21T15:24:36;20.60;91.60
18101;DHT22;9177;49.156;8.142;2023-03-21T15:27:06;20.50;91.50
18101;DHT22;9177;49.156;8.142;2023-03-21T15:29:34;20.50;91.60
18101;DHT22;9177;49.156;8.142;2023-03-21T15:32:11;20.50;91.60
18101;DHT22;9177;49.156;8.142;2023-03-21T15:34:39;20.50;91.60
18101;DHT22;9177;49.156;8.142;2023-03-21T15:37:07;20.50;91.60
18101;DHT22;9177;49.156;8.142;2023-03-21T15:39:41;20.50;91.70
18101;DHT22;9177;49.156;8.142;2023-03-21T15:42:23;20.50;91.70
18101;DHT22;9177;49.156;8.142;2023-03-21T15:44:54;20.50;91.70
18101;DHT22;9177;49.156;8.142;2023-03-21T15:47:53;20.50;91.70
18101;DHT22;9177;49.156;8.142;2023-03-21T15:50:32;20.50;91.80
18101;DHT22;9177;49.156;8.142;2023-03-21T15:53:02;20.50;91.80
18101;DHT22;9177;49.156;8.142;2023-03-21T15:55:41;20.50;91.80
18101;DHT22;9177;49.156;8.142;2023-03-21T15:58:15;20.50;91.80
18101;DHT22;9177;49.156;8.142;2023-03-21T16:00:47;20.50;91.80
18101;DHT22;9177;49.156;8.142;2023-03-21T16:03:19;20.50;91.80
18101;DHT22;9177;49.156;8.142;2023-03-21T16:06:14;20.50;91.90
18101;DHT22;9177;49.156;8.142;2023-03-21T16:08:44;20.40;91.80
18101;DHT22;9177;49.156;8.142;2023-03-21T16:11:17;20.40;91.90
18101;DHT22;9177;49.156;8.142;2023-03-21T16:13:44;20.40;91.90
18101;DHT22;9177;49.156;8.142;2023-03-21T16:16:15;20.40;91.90
18101;DHT22;9177;49.156;8.142;2023-03-21T16:18:43;20.40;91.90
18101;DHT22;9177;49.156;8.142;2023-03-21T16:21:13;20.40;91.90
18101;DHT22;9177;49.156;8.142;2023-03-21T16:23:41;20.40;91.90